Moderators: richierich, ua900, PanAm_DC10, hOMSaR

 
CRJ200flyer
Topic Author
Posts: 341
Joined: Sun Sep 09, 2018 2:33 pm

Tornado warning at CVG

Thu Mar 14, 2019 9:33 pm

Arrivals have begun again after stopping for a 25 minute period. Reports that the tower was evacuated. Some aircraft did divert.

Example - Diverted to CMH:
https://flightaware.com/live/flight/EDV ... /KBWI/KCVG

https://www.wlwt.com/article/live-torna ... t/26826184
 
Thunderbolt500
Posts: 139
Joined: Mon Mar 11, 2019 9:01 pm

Re: Tornado warning at CVG

Thu Mar 14, 2019 10:00 pm

Must mean spring. Is coming finally
 
CRJ200flyer
Topic Author
Posts: 341
Joined: Sun Sep 09, 2018 2:33 pm

Re: Tornado warning at CVG

Thu Mar 14, 2019 10:18 pm

Another severe thunderstorm warning. There goes another diversion to CMH.

ORD-CVG
https://flightaware.com/live/flight/EDV ... /KORD/KCVG

BOS-CVG - not sure where this guy is headed!
https://flightaware.com/live/flight/DAL5005
Last edited by CRJ200flyer on Thu Mar 14, 2019 10:30 pm, edited 1 time in total.
 
cvgComair
Posts: 2040
Joined: Thu Jul 07, 2016 3:48 pm

Re: Tornado warning at CVG

Thu Mar 14, 2019 10:25 pm

Definitely a normal occurrence for this time of year in the midwest. I remember seeing a video when they had everyone evacuate into the tunnels between A&B and the baggage tunnel between B&C.
 
ORDfan101
Posts: 134
Joined: Thu Jan 03, 2019 2:14 am

Re: Tornado warning at CVG

Thu Mar 14, 2019 10:29 pm

Blown in from Chicago, we had one earlier
 
Boeing727
Posts: 864
Joined: Sat May 22, 1999 1:32 am

Re: Tornado warning at CVG

Thu Mar 14, 2019 10:44 pm

SDF was fairly rough as well with peak gusts close to 60...

KSDF 142121Z COR 19036G53KT 10SM TS BKN050CB BKN090 BKN250 25/14 A2955 RMK AO2 PK WND 20053/2120 LTG DSNT W-NE TSB21 OCNL LTGIC OHD-W TS OHD-W MOV NE SH DSNT W-N T02500144
KSDF 142056Z 20037G58KT 10SM BKN050 BKN060 BKN250 25/14 A2956 RMK AO2 PK WND 21058/2055 LTG DSNT SW AND W SLP005 SH DSNT W-N T02500144 56027
KSDF 141956Z 19030G53KT 10SM BKN050 BKN060 BKN250 26/14 A2956 RMK AO2 PK WND 20053/1928 LTG DSNT W-N SLP007 OCNL LTGCG DSNT NW SH DSNT W-N T02560144
KSDF 141856Z 18031G53KT 10SM BKN045 BKN060 BKN250 24/14 A2959 RMK AO2 PK WND 19053/1856 SLP017 T02440139

https://flightaware.com/live/flight/RPA ... /KDTW/KIND
 
Italianflyer
Posts: 867
Joined: Sun Nov 11, 2007 3:06 pm

Re: Tornado warning at CVG

Fri Mar 15, 2019 12:56 am

Gusts on SDF we're crazy all day but the worst cells formed over the southern Indiana suburbs and made a bee line towards N.Ky and So.Oh. Spring is in the air! Made it to the high 70s this afternoon and tomorrow be lucky to see 40. Urgh
 
kwp302
Posts: 227
Joined: Thu Feb 28, 2019 4:59 pm

Re: Tornado warning at CVG

Fri Mar 15, 2019 1:19 am

Italianflyer wrote:
Gusts on SDF we're crazy all day but the worst cells formed over the southern Indiana suburbs and made a bee line towards N.Ky and So.Oh. Spring is in the air! Made it to the high 70s this afternoon and tomorrow be lucky to see 40. Urgh

Was driving north on 65 today around noon when the gusts were starting to pick up and watched several UPS planes and a Delta MD-80 landing. Let's just say it looked like they were going for quite a ride.

Popular Searches On Airliners.net

Top Photos of Last:   24 Hours  •  48 Hours  •  7 Days  •  30 Days  •  180 Days  •  365 Days  •  All Time

Military Aircraft Every type from fighters to helicopters from air forces around the globe

Classic Airliners Props and jets from the good old days

Flight Decks Views from inside the cockpit

Aircraft Cabins Passenger cabin shots showing seat arrangements as well as cargo aircraft interior

Cargo Aircraft Pictures of great freighter aircraft

Government Aircraft Aircraft flying government officials

Helicopters Our large helicopter section. Both military and civil versions

Blimps / Airships Everything from the Goodyear blimp to the Zeppelin

Night Photos Beautiful shots taken while the sun is below the horizon

Accidents Accident, incident and crash related photos

Air to Air Photos taken by airborne photographers of airborne aircraft

Special Paint Schemes Aircraft painted in beautiful and original liveries

Airport Overviews Airport overviews from the air or ground

Tails and Winglets Tail and Winglet closeups with beautiful airline logos